sensor_id;sensor_type;location;lat;lon;timestamp;temperature;humidity
43087;DHT22;28708;52.224;6.924;2022-11-15T00:00:30;8.50;99.90
43087;DHT22;28708;52.224;6.924;2022-11-15T00:03:22;8.50;99.90
43087;DHT22;28708;52.224;6.924;2022-11-15T00:06:06;8.40;99.90
43087;DHT22;28708;52.224;6.924;2022-11-15T00:08:50;8.30;99.90
43087;DHT22;28708;52.224;6.924;2022-11-15T00:11:34;8.20;99.90
43087;DHT22;28708;52.224;6.924;2022-11-15T00:14:18;8.10;99.90
43087;DHT22;28708;52.224;6.924;2022-11-15T00:17:02;8.00;99.90
43087;DHT22;28708;52.224;6.924;2022-11-15T00:19:46;8.20;99.90
43087;DHT22;28708;52.224;6.924;2022-11-15T00:22:33;8.20;99.90
43087;DHT22;28708;52.224;6.924;2022-11-15T00:25:17;8.20;99.90
43087;DHT22;28708;52.224;6.924;2022-11-15T00:28:02;8.20;99.90
43087;DHT22;28708;52.224;6.924;2022-11-15T00:30:46;8.20;99.90
43087;DHT22;28708;52.224;6.924;2022-11-15T00:33:31;8.30;99.90
43087;DHT22;28708;52.224;6.924;2022-11-15T00:36:15;8.40;99.90
43087;DHT22;28708;52.224;6.924;2022-11-15T00:38:59;8.40;99.90
43087;DHT22;28708;52.224;6.924;2022-11-15T00:41:44;8.30;99.90
43087;DHT22;28708;52.224;6.924;2022-11-15T00:44:28;8.30;99.90
43087;DHT22;28708;52.224;6.924;2022-11-15T00:47:12;8.40;99.90
43087;DHT22;28708;52.224;6.924;2022-11-15T00:49:57;8.40;99.90
43087;DHT22;28708;52.224;6.924;2022-11-15T00:52:42;8.40;99.90
43087;DHT22;28708;52.224;6.924;2022-11-15T00:55:26;8.50;99.90
43087;DHT22;28708;52.224;6.924;2022-11-15T00:58:10;8.50;99.90
43087;DHT22;28708;52.224;6.924;2022-11-15T01:00:54;8.60;99.90
43087;DHT22;28708;52.224;6.924;2022-11-15T01:03:40;8.60;99.90
43087;DHT22;28708;52.224;6.924;2022-11-15T01:06:24;8.60;99.90
43087;DHT22;28708;52.224;6.924;2022-11-15T01:09:08;8.60;99.90
43087;DHT22;28708;52.224;6.924;2022-11-15T01:11:52;8.60;99.90
43087;DHT22;28708;52.224;6.924;2022-11-15T01:14:36;8.70;99.90
43087;DHT22;28708;52.224;6.924;2022-11-15T01:17:20;8.70;99.90
43087;DHT22;28708;52.224;6.924;2022-11-15T01:20:05;8.70;99.90
43087;DHT22;28708;52.224;6.924;2022-11-15T01:22:50;8.70;99.90
43087;DHT22;28708;52.224;6.924;2022-11-15T01:25:34;8.70;99.90
43087;DHT22;28708;52.224;6.924;2022-11-15T01:28:18;8.70;99.90
43087;DHT22;28708;52.224;6.924;2022-11-15T01:31:05;8.70;99.90
43087;DHT22;28708;52.224;6.924;2022-11-15T01:33:49;8.70;99.90
43087;DHT22;28708;52.224;6.924;2022-11-15T01:36:33;8.70;99.90
43087;DHT22;28708;52.224;6.924;2022-11-15T01:39:18;8.70;99.90
43087;DHT22;28708;52.224;6.924;2022-11-15T01:42:02;8.70;99.90
43087;DHT22;28708;52.224;6.924;2022-11-15T01:44:50;8.80;99.90
43087;DHT22;28708;52.224;6.924;2022-11-15T01:47:39;8.80;99.90
43087;DHT22;28708;52.224;6.924;2022-11-15T01:50:28;8.80;99.90
43087;DHT22;28708;52.224;6.924;2022-11-15T01:53:14;8.80;99.90
43087;DHT22;28708;52.224;6.924;2022-11-15T01:56:02;8.80;99.90
43087;DHT22;28708;52.224;6.924;2022-11-15T01:58:47;8.80;99.90
43087;DHT22;28708;52.224;6.924;2022-11-15T02:01:32;8.90;99.90
43087;DHT22;28708;52.224;6.924;2022-11-15T02:04:20;8.90;99.90
43087;DHT22;28708;52.224;6.924;2022-11-15T02:07:06;8.90;99.90
43087;DHT22;28708;52.224;6.924;2022-11-15T02:09:52;8.90;99.90
43087;DHT22;28708;52.224;6.924;2022-11-15T02:12:37;8.90;99.90
43087;DHT22;28708;52.224;6.924;2022-11-15T02:15:24;9.00;99.90
43087;DHT22;28708;52.224;6.924;2022-11-15T02:18:23;9.10;99.90
43087;DHT22;28708;52.224;6.924;2022-11-15T02:24:35;9.00;99.90
43087;DHT22;28708;52.224;6.924;2022-11-15T02:27:42;9.00;99.90
43087;DHT22;28708;52.224;6.924;2022-11-15T02:30:53;9.10;99.90
43087;DHT22;28708;52.224;6.924;2022-11-15T02:42:30;9.30;99.90
43087;DHT22;28708;52.224;6.924;2022-11-15T02:45:39;9.30;99.90
43087;DHT22;28708;52.224;6.924;2022-11-15T02:48:25;9.30;99.90
43087;DHT22;28708;52.224;6.924;2022-11-15T02:51:10;9.30;99.90
43087;DHT22;28708;52.224;6.924;2022-11-15T02:53:55;9.40;99.90
43087;DHT22;28708;52.224;6.924;2022-11-15T02:56:39;9.50;99.90
43087;DHT22;28708;52.224;6.924;2022-11-15T02:59:39;9.50;99.90
43087;DHT22;28708;52.224;6.924;2022-11-15T03:02:42;9.50;99.90
43087;DHT22;28708;52.224;6.924;2022-11-15T03:05:44;9.50;99.90
43087;DHT22;28708;52.224;6.924;2022-11-15T03:08:46;9.60;99.90
43087;DHT22;28708;52.224;6.924;2022-11-15T03:11:37;9.60;99.90
43087;DHT22;28708;52.224;6.924;2022-11-15T03:14:32;9.60;99.90
43087;DHT22;28708;52.224;6.924;2022-11-15T03:17:23;9.70;99.90
43087;DHT22;28708;52.224;6.924;2022-11-15T03:20:09;9.60;99.90
43087;DHT22;28708;52.224;6.924;2022-11-15T03:23:00;9.70;99.90
43087;DHT22;28708;52.224;6.924;2022-11-15T03:25:48;9.60;99.90
43087;DHT22;28708;52.224;6.924;2022-11-15T03:28:38;9.70;99.90
43087;DHT22;28708;52.224;6.924;2022-11-15T03:31:28;9.70;99.90
43087;DHT22;28708;52.224;6.924;2022-11-15T03:34:44;9.70;99.90
43087;DHT22;28708;52.224;6.924;2022-11-15T03:37:45;9.80;99.90
43087;DHT22;28708;52.224;6.924;2022-11-15T03:40:44;9.80;99.90
43087;DHT22;28708;52.224;6.924;2022-11-15T03:46:40;9.80;99.90
43087;DHT22;28708;52.224;6.924;2022-11-15T03:49:31;9.80;99.90
43087;DHT22;28708;52.224;6.924;2022-11-15T03:52:21;9.80;99.90
43087;DHT22;28708;52.224;6.924;2022-11-15T03:55:08;9.80;99.90
43087;DHT22;28708;52.224;6.924;2022-11-15T03:57:57;9.80;99.90
43087;DHT22;28708;52.224;6.924;2022-11-15T04:00:42;9.80;99.90
43087;DHT22;28708;52.224;6.924;2022-11-15T04:03:26;9.90;99.90
43087;DHT22;28708;52.224;6.924;2022-11-15T04:06:11;10.00;99.90
43087;DHT22;28708;52.224;6.924;2022-11-15T04:08:55;10.00;99.90
43087;DHT22;28708;52.224;6.924;2022-11-15T04:11:39;10.10;99.90
43087;DHT22;28708;52.224;6.924;2022-11-15T04:14:23;10.10;99.90
43087;DHT22;28708;52.224;6.924;2022-11-15T04:17:08;10.20;99.90
43087;DHT22;28708;52.224;6.924;2022-11-15T04:19:52;10.20;99.90
43087;DHT22;28708;52.224;6.924;2022-11-15T04:22:56;10.10;99.90
43087;DHT22;28708;52.224;6.924;2022-11-15T04:26:01;10.10;99.90
43087;DHT22;28708;52.224;6.924;2022-11-15T04:28:46;10.10;99.90
43087;DHT22;28708;52.224;6.924;2022-11-15T04:31:50;10.20;99.90
43087;DHT22;28708;52.224;6.924;2022-11-15T04:34:34;10.30;99.90
43087;DHT22;28708;52.224;6.924;2022-11-15T04:37:19;10.40;99.90
43087;DHT22;28708;52.224;6.924;2022-11-15T04:40:03;10.40;99.90
43087;DHT22;28708;52.224;6.924;2022-11-15T04:42:48;10.50;99.90
43087;DHT22;28708;52.224;6.924;2022-11-15T04:45:32;10.50;99.90
43087;DHT22;28708;52.224;6.924;2022-11-15T04:48:16;10.50;99.90
43087;DHT22;28708;52.224;6.924;2022-11-15T04:51:00;10.50;99.90
43087;DHT22;28708;52.224;6.924;2022-11-15T04:53:45;10.60;99.90
43087;DHT22;28708;52.224;6.924;2022-11-15T04:56:29;10.70;99.90
43087;DHT22;28708;52.224;6.924;2022-11-15T04:59:13;10.80;99.90
43087;DHT22;28708;52.224;6.924;2022-11-15T05:01:57;10.80;99.90
43087;DHT22;28708;52.224;6.924;2022-11-15T05:04:42;10.90;99.90
43087;DHT22;28708;52.224;6.924;2022-11-15T05:07:26;11.00;99.90
43087;DHT22;28708;52.224;6.924;2022-11-15T05:10:11;11.00;99.90
43087;DHT22;28708;52.224;6.924;2022-11-15T05:12:55;11.00;99.90
43087;DHT22;28708;52.224;6.924;2022-11-15T05:15:39;11.00;99.90
43087;DHT22;28708;52.224;6.924;2022-11-15T05:18:23;11.10;99.90
43087;DHT22;28708;52.224;6.924;2022-11-15T05:21:10;11.20;99.90
43087;DHT22;28708;52.224;6.924;2022-11-15T05:23:54;11.20;99.90
43087;DHT22;28708;52.224;6.924;2022-11-15T05:26:38;11.20;99.90
43087;DHT22;28708;52.224;6.924;2022-11-15T05:29:22;11.30;99.90
43087;DHT22;28708;52.224;6.924;2022-11-15T05:32:09;11.20;99.90
43087;DHT22;28708;52.224;6.924;2022-11-15T05:34:54;11.20;99.90
43087;DHT22;28708;52.224;6.924;2022-11-15T05:37:38;11.30;99.90
43087;DHT22;28708;52.224;6.924;2022-11-15T05:40:23;11.30;99.90
43087;DHT22;28708;52.224;6.924;2022-11-15T05:43:07;11.30;99.90
43087;DHT22;28708;52.224;6.924;2022-11-15T05:45:53;11.30;99.90
43087;DHT22;28708;52.224;6.924;2022-11-15T05:48:39;11.30;99.90
43087;DHT22;28708;52.224;6.924;2022-11-15T05:51:24;11.30;99.90
43087;DHT22;28708;52.224;6.924;2022-11-15T05:54:10;11.30;99.90
43087;DHT22;28708;52.224;6.924;2022-11-15T05:56:55;11.40;99.90
43087;DHT22;28708;52.224;6.924;2022-11-15T05:59:39;11.40;99.90
43087;DHT22;28708;52.224;6.924;2022-11-15T06:02:24;11.40;99.90
43087;DHT22;28708;52.224;6.924;2022-11-15T06:05:08;11.30;99.90
43087;DHT22;28708;52.224;6.924;2022-11-15T06:07:52;11.30;99.90
43087;DHT22;28708;52.224;6.924;2022-11-15T06:10:36;11.20;99.90
43087;DHT22;28708;52.224;6.924;2022-11-15T06:13:20;11.30;99.90
43087;DHT22;28708;52.224;6.924;2022-11-15T06:16:05;11.30;99.90
43087;DHT22;28708;52.224;6.924;2022-11-15T06:18:49;11.30;99.90
43087;DHT22;28708;52.224;6.924;2022-11-15T06:21:33;11.30;99.90
43087;DHT22;28708;52.224;6.924;2022-11-15T06:24:17;11.30;99.90
43087;DHT22;28708;52.224;6.924;2022-11-15T06:27:01;11.20;99.90
43087;DHT22;28708;52.224;6.924;2022-11-15T06:29:45;11.20;99.90
43087;DHT22;28708;52.224;6.924;2022-11-15T06:32:31;11.20;99.90
43087;DHT22;28708;52.224;6.924;2022-11-15T06:35:16;11.20;99.90
43087;DHT22;28708;52.224;6.924;2022-11-15T06:38:09;11.10;99.90
43087;DHT22;28708;52.224;6.924;2022-11-15T06:40:53;11.10;99.90
43087;DHT22;28708;52.224;6.924;2022-11-15T06:43:37;11.10;99.90
43087;DHT22;28708;52.224;6.924;2022-11-15T06:46:22;11.10;99.90
43087;DHT22;28708;52.224;6.924;2022-11-15T06:49:06;11.10;99.90
43087;DHT22;28708;52.224;6.924;2022-11-15T06:51:50;11.10;99.90
43087;DHT22;28708;52.224;6.924;2022-11-15T06:54:34;11.10;99.90
43087;DHT22;28708;52.224;6.924;2022-11-15T06:57:18;11.20;99.90
43087;DHT22;28708;52.224;6.924;2022-11-15T07:00:06;11.20;99.90
43087;DHT22;28708;52.224;6.924;2022-11-15T07:02:50;11.20;99.90
43087;DHT22;28708;52.224;6.924;2022-11-15T07:05:34;11.10;99.90
43087;DHT22;28708;52.224;6.924;2022-11-15T07:08:18;11.10;99.90
43087;DHT22;28708;52.224;6.924;2022-11-15T07:11:05;11.10;99.90
43087;DHT22;28708;52.224;6.924;2022-11-15T07:13:50;11.10;99.90
43087;DHT22;28708;52.224;6.924;2022-11-15T07:16:34;11.10;99.90
43087;DHT22;28708;52.224;6.924;2022-11-15T07:19:19;11.00;99.90
43087;DHT22;28708;52.224;6.924;2022-11-15T07:22:03;11.00;99.90
43087;DHT22;28708;52.224;6.924;2022-11-15T07:24:47;11.10;99.90
43087;DHT22;28708;52.224;6.924;2022-11-15T07:27:32;11.10;99.90
43087;DHT22;28708;52.224;6.924;2022-11-15T07:30:16;11.10;99.90
43087;DHT22;28708;52.224;6.924;2022-11-15T07:33:00;11.10;99.90
43087;DHT22;28708;52.224;6.924;2022-11-15T07:35:44;11.10;99.90
43087;DHT22;28708;52.224;6.924;2022-11-15T07:38:33;11.10;99.90
43087;DHT22;28708;52.224;6.924;2022-11-15T07:41:18;11.20;99.90
43087;DHT22;28708;52.224;6.924;2022-11-15T07:44:02;11.10;99.90
43087;DHT22;28708;52.224;6.924;2022-11-15T07:46:46;11.10;99.90
43087;DHT22;28708;52.224;6.924;2022-11-15T07:49:30;11.10;99.90
43087;DHT22;28708;52.224;6.924;2022-11-15T07:52:14;11.10;99.90
43087;DHT22;28708;52.224;6.924;2022-11-15T07:54:58;11.10;99.90
43087;DHT22;28708;52.224;6.924;2022-11-15T07:57:42;11.10;99.90
43087;DHT22;28708;52.224;6.924;2022-11-15T08:00:26;11.20;99.90
43087;DHT22;28708;52.224;6.924;2022-11-15T08:03:13;11.20;99.90
43087;DHT22;28708;52.224;6.924;2022-11-15T08:05:58;11.20;99.90
43087;DHT22;28708;52.224;6.924;2022-11-15T08:08:42;11.30;99.90
43087;DHT22;28708;52.224;6.924;2022-11-15T08:11:26;11.20;99.90
43087;DHT22;28708;52.224;6.924;2022-11-15T08:14:10;11.30;99.90
43087;DHT22;28708;52.224;6.924;2022-11-15T08:16:55;11.30;99.90
43087;DHT22;28708;52.224;6.924;2022-11-15T08:19:39;11.30;99.90
43087;DHT22;28708;52.224;6.924;2022-11-15T08:22:23;11.30;99.90
43087;DHT22;28708;52.224;6.924;2022-11-15T08:25:07;11.30;99.90
43087;DHT22;28708;52.224;6.924;2022-11-15T08:27:58;11.40;99.90
43087;DHT22;28708;52.224;6.924;2022-11-15T08:30:43;11.40;99.90
43087;DHT22;28708;52.224;6.924;2022-11-15T08:33:30;11.40;99.90
43087;DHT22;28708;52.224;6.924;2022-11-15T08:36:16;11.40;99.90
43087;DHT22;28708;52.224;6.924;2022-11-15T08:39:00;11.50;99.90
43087;DHT22;28708;52.224;6.924;2022-11-15T08:41:44;11.50;99.90
43087;DHT22;28708;52.224;6.924;2022-11-15T08:44:29;11.50;99.90
43087;DHT22;28708;52.224;6.924;2022-11-15T08:47:13;11.50;99.90
43087;DHT22;28708;52.224;6.924;2022-11-15T08:49:58;11.60;99.90
43087;DHT22;28708;52.224;6.924;2022-11-15T08:52:42;11.60;99.90
43087;DHT22;28708;52.224;6.924;2022-11-15T08:55:26;11.60;99.90
43087;DHT22;28708;52.224;6.924;2022-11-15T08:58:10;11.60;99.90
43087;DHT22;28708;52.224;6.924;2022-11-15T09:00:55;11.60;99.90
43087;DHT22;28708;52.224;6.924;2022-11-15T09:03:40;11.70;99.90
43087;DHT22;28708;52.224;6.924;2022-11-15T09:06:24;11.70;99.90
43087;DHT22;28708;52.224;6.924;2022-11-15T09:09:09;11.80;99.90
43087;DHT22;28708;52.224;6.924;2022-11-15T09:11:53;11.90;99.90
43087;DHT22;28708;52.224;6.924;2022-11-15T09:14:37;12.00;99.90
43087;DHT22;28708;52.224;6.924;2022-11-15T09:17:21;12.10;99.90
43087;DHT22;28708;52.224;6.924;2022-11-15T09:20:06;12.10;99.90
43087;DHT22;28708;52.224;6.924;2022-11-15T09:22:50;12.30;99.90
43087;DHT22;28708;52.224;6.924;2022-11-15T09:25:34;12.30;99.90
43087;DHT22;28708;52.224;6.924;2022-11-15T09:28:19;12.30;99.90
43087;DHT22;28708;52.224;6.924;2022-11-15T09:31:04;12.30;99.90
43087;DHT22;28708;52.224;6.924;2022-11-15T09:33:49;12.20;99.90
43087;DHT22;28708;52.224;6.924;2022-11-15T09:36:33;12.20;99.90
43087;DHT22;28708;52.224;6.924;2022-11-15T09:39:17;12.20;99.90
43087;DHT22;28708;52.224;6.924;2022-11-15T09:45:20;12.20;99.90
43087;DHT22;28708;52.224;6.924;2022-11-15T09:48:33;12.10;99.90
43087;DHT22;28708;52.224;6.924;2022-11-15T09:51:40;12.10;99.90
43087;DHT22;28708;52.224;6.924;2022-11-15T09:56:46;12.10;99.90
43087;DHT22;28708;52.224;6.924;2022-11-15T10:04:46;12.00;99.90
43087;DHT22;28708;52.224;6.924;2022-11-15T10:12:53;12.00;99.90
43087;DHT22;28708;52.224;6.924;2022-11-15T10:15:20;12.00;99.90
43087;DHT22;28708;52.224;6.924;2022-11-15T10:17:56;12.00;99.90
43087;DHT22;28708;52.224;6.924;2022-11-15T10:20:27;12.10;99.90
43087;DHT22;28708;52.224;6.924;2022-11-15T10:22:59;12.00;99.90
43087;DHT22;28708;52.224;6.924;2022-11-15T10:25:27;12.10;99.90
43087;DHT22;28708;52.224;6.924;2022-11-15T10:27:56;12.10;99.90
43087;DHT22;28708;52.224;6.924;2022-11-15T10:30:28;12.00;99.90
43087;DHT22;28708;52.224;6.924;2022-11-15T10:32:55;12.30;99.90
43087;DHT22;28708;52.224;6.924;2022-11-15T10:37:49;13.40;99.90
43087;DHT22;28708;52.224;6.924;2022-11-15T10:42:42;13.80;99.90
43087;DHT22;28708;52.224;6.924;2022-11-15T10:45:29;13.20;99.90
43087;DHT22;28708;52.224;6.924;2022-11-15T10:50:45;14.90;99.90
43087;DHT22;28708;52.224;6.924;2022-11-15T10:53:28;15.50;99.90
43087;DHT22;28708;52.224;6.924;2022-11-15T10:56:05;16.60;99.90
43087;DHT22;28708;52.224;6.924;2022-11-15T10:58:38;17.20;99.90
43087;DHT22;28708;52.224;6.924;2022-11-15T11:01:14;18.20;99.90
43087;DHT22;28708;52.224;6.924;2022-11-15T11:03:42;17.80;99.90
43087;DHT22;28708;52.224;6.924;2022-11-15T11:08:33;16.50;99.90
43087;DHT22;28708;52.224;6.924;2022-11-15T11:11:00;17.50;99.90
43087;DHT22;28708;52.224;6.924;2022-11-15T11:16:09;17.50;99.90
43087;DHT22;28708;52.224;6.924;2022-11-15T11:24:54;19.00;99.90
43087;DHT22;28708;52.224;6.924;2022-11-15T11:30:00;18.30;99.90
43087;DHT22;28708;52.224;6.924;2022-11-15T11:35:13;17.80;99.90
43087;DHT22;28708;52.224;6.924;2022-11-15T11:40:30;15.20;99.90
43087;DHT22;28708;52.224;6.924;2022-11-15T11:48:14;13.80;99.90
43087;DHT22;28708;52.224;6.924;2022-11-15T11:50:42;13.90;99.90
43087;DHT22;28708;52.224;6.924;2022-11-15T11:56:32;14.00;99.90
43087;DHT22;28708;52.224;6.924;2022-11-15T11:59:10;13.80;99.90
43087;DHT22;28708;52.224;6.924;2022-11-15T12:01:41;13.70;99.90
43087;DHT22;28708;52.224;6.924;2022-11-15T12:04:32;13.60;99.90
43087;DHT22;28708;52.224;6.924;2022-11-15T12:07:08;13.70;99.90
43087;DHT22;28708;52.224;6.924;2022-11-15T12:09:43;13.90;99.90
43087;DHT22;28708;52.224;6.924;2022-11-15T12:15:03;13.70;99.90
43087;DHT22;28708;52.224;6.924;2022-11-15T12:17:31;13.70;99.90
43087;DHT22;28708;52.224;6.924;2022-11-15T12:20:03;13.70;99.90
43087;DHT22;28708;52.224;6.924;2022-11-15T12:22:39;13.80;99.90
43087;DHT22;28708;52.224;6.924;2022-11-15T12:28:37;13.90;99.90
43087;DHT22;28708;52.224;6.924;2022-11-15T12:31:09;14.00;99.90
43087;DHT22;28708;52.224;6.924;2022-11-15T12:33:42;13.80;99.90
43087;DHT22;28708;52.224;6.924;2022-11-15T12:39:00;13.90;99.90
43087;DHT22;28708;52.224;6.924;2022-11-15T12:41:29;13.80;99.90
43087;DHT22;28708;52.224;6.924;2022-11-15T12:43:56;13.70;99.90
43087;DHT22;28708;52.224;6.924;2022-11-15T12:49:02;13.70;99.90
43087;DHT22;28708;52.224;6.924;2022-11-15T13:02:22;13.60;99.90
43087;DHT22;28708;52.224;6.924;2022-11-15T13:04:50;13.70;99.90
43087;DHT22;28708;52.224;6.924;2022-11-15T13:10:07;13.90;99.90
43087;DHT22;28708;52.224;6.924;2022-11-15T13:17:38;14.20;99.90
43087;DHT22;28708;52.224;6.924;2022-11-15T13:27:57;14.10;99.90
43087;DHT22;28708;52.224;6.924;2022-11-15T13:30:29;14.10;99.90
43087;DHT22;28708;52.224;6.924;2022-11-15T13:32:55;14.10;99.90
43087;DHT22;28708;52.224;6.924;2022-11-15T13:35:24;14.10;99.90
43087;DHT22;28708;52.224;6.924;2022-11-15T13:37:51;14.10;99.90
43087;DHT22;28708;52.224;6.924;2022-11-15T13:40:25;14.00;99.90
43087;DHT22;28708;52.224;6.924;2022-11-15T13:42:53;14.00;99.90
43087;DHT22;28708;52.224;6.924;2022-11-15T13:45:19;14.00;99.90
43087;DHT22;28708;52.224;6.924;2022-11-15T13:47:54;13.90;99.90
43087;DHT22;28708;52.224;6.924;2022-11-15T13:50:27;13.80;99.90
43087;DHT22;28708;52.224;6.924;2022-11-15T13:52:58;13.80;99.90
43087;DHT22;28708;52.224;6.924;2022-11-15T13:55:25;13.70;99.90
43087;DHT22;28708;52.224;6.924;2022-11-15T13:57:58;13.60;99.90
43087;DHT22;28708;52.224;6.924;2022-11-15T14:02:53;13.60;99.90
43087;DHT22;28708;52.224;6.924;2022-11-15T14:05:22;13.60;99.90
43087;DHT22;28708;52.224;6.924;2022-11-15T14:07:55;13.60;99.90
43087;DHT22;28708;52.224;6.924;2022-11-15T14:10:31;13.60;99.90
43087;DHT22;28708;52.224;6.924;2022-11-15T14:12:58;13.50;99.90
43087;DHT22;28708;52.224;6.924;2022-11-15T14:17:57;13.60;99.90
43087;DHT22;28708;52.224;6.924;2022-11-15T14:20:32;13.60;99.90
43087;DHT22;28708;52.224;6.924;2022-11-15T14:23:25;13.60;99.90
43087;DHT22;28708;52.224;6.924;2022-11-15T14:25:56;13.50;99.90
43087;DHT22;28708;52.224;6.924;2022-11-15T14:30:56;13.20;99.90
43087;DHT22;28708;52.224;6.924;2022-11-15T14:35:57;13.20;99.90
43087;DHT22;28708;52.224;6.924;2022-11-15T14:38:27;13.10;99.90
43087;DHT22;28708;52.224;6.924;2022-11-15T14:40:54;13.10;99.90
43087;DHT22;28708;52.224;6.924;2022-11-15T14:43:21;13.00;99.90
43087;DHT22;28708;52.224;6.924;2022-11-15T14:45:46;12.90;99.90
43087;DHT22;28708;52.224;6.924;2022-11-15T14:48:12;12.90;99.90
43087;DHT22;28708;52.224;6.924;2022-11-15T14:50:38;12.80;99.90
43087;DHT22;28708;52.224;6.924;2022-11-15T14:53:04;12.70;99.90
43087;DHT22;28708;52.224;6.924;2022-11-15T14:55:34;12.70;99.90
43087;DHT22;28708;52.224;6.924;2022-11-15T14:58:05;12.70;99.90
43087;DHT22;28708;52.224;6.924;2022-11-15T15:00:38;12.70;99.90
43087;DHT22;28708;52.224;6.924;2022-11-15T15:03:04;12.70;99.90
43087;DHT22;28708;52.224;6.924;2022-11-15T15:05:40;12.70;99.90
43087;DHT22;28708;52.224;6.924;2022-11-15T15:08:07;12.70;99.90
43087;DHT22;28708;52.224;6.924;2022-11-15T15:10:35;12.60;99.90
43087;DHT22;28708;52.224;6.924;2022-11-15T15:13:03;12.50;99.90
43087;DHT22;28708;52.224;6.924;2022-11-15T15:15:36;12.40;99.90
43087;DHT22;28708;52.224;6.924;2022-11-15T15:18:03;12.30;99.90
43087;DHT22;28708;52.224;6.924;2022-11-15T15:20:31;12.30;99.90
43087;DHT22;28708;52.224;6.924;2022-11-15T15:22:56;12.20;99.90
43087;DHT22;28708;52.224;6.924;2022-11-15T15:25:34;12.20;99.90
43087;DHT22;28708;52.224;6.924;2022-11-15T15:28:00;12.20;99.90
43087;DHT22;28708;52.224;6.924;2022-11-15T15:30:28;12.20;99.90
43087;DHT22;28708;52.224;6.924;2022-11-15T15:32:55;12.20;99.90
43087;DHT22;28708;52.224;6.924;2022-11-15T15:35:21;12.20;99.90
43087;DHT22;28708;52.224;6.924;2022-11-15T15:37:48;12.20;99.90
43087;DHT22;28708;52.224;6.924;2022-11-15T15:40:16;12.20;99.90
43087;DHT22;28708;52.224;6.924;2022-11-15T15:42:42;12.10;99.90
43087;DHT22;28708;52.224;6.924;2022-11-15T15:45:09;12.00;99.90
43087;DHT22;28708;52.224;6.924;2022-11-15T15:47:35;12.00;99.90
43087;DHT22;28708;52.224;6.924;2022-11-15T15:50:01;12.00;99.90
43087;DHT22;28708;52.224;6.924;2022-11-15T15:52:26;11.90;99.90
43087;DHT22;28708;52.224;6.924;2022-11-15T15:54:52;11.90;99.90
43087;DHT22;28708;52.224;6.924;2022-11-15T15:57:18;11.90;99.90
43087;DHT22;28708;52.224;6.924;2022-11-15T15:59:43;11.80;99.90
43087;DHT22;28708;52.224;6.924;2022-11-15T16:02:12;11.90;99.90
43087;DHT22;28708;52.224;6.924;2022-11-15T16:04:37;11.90;99.90
43087;DHT22;28708;52.224;6.924;2022-11-15T16:07:03;11.90;99.90
43087;DHT22;28708;52.224;6.924;2022-11-15T16:09:29;11.90;99.90
43087;DHT22;28708;52.224;6.924;2022-11-15T16:12:14;11.90;99.90
43087;DHT22;28708;52.224;6.924;2022-11-15T16:14:42;12.00;99.90
43087;DHT22;28708;52.224;6.924;2022-11-15T16:17:26;11.90;99.90
43087;DHT22;28708;52.224;6.924;2022-11-15T16:19:52;11.90;99.90
43087;DHT22;28708;52.224;6.924;2022-11-15T16:22:17;12.00;99.90
43087;DHT22;28708;52.224;6.924;2022-11-15T16:24:43;12.00;99.90
43087;DHT22;28708;52.224;6.924;2022-11-15T16:27:16;12.00;99.90
43087;DHT22;28708;52.224;6.924;2022-11-15T16:29:43;12.00;99.90
43087;DHT22;28708;52.224;6.924;2022-11-15T16:32:09;12.00;99.90
43087;DHT22;28708;52.224;6.924;2022-11-15T16:34:35;12.00;99.90
43087;DHT22;28708;52.224;6.924;2022-11-15T16:37:01;12.10;99.90
43087;DHT22;28708;52.224;6.924;2022-11-15T16:39:26;12.10;99.90
43087;DHT22;28708;52.224;6.924;2022-11-15T16:41:56;12.10;99.90
43087;DHT22;28708;52.224;6.924;2022-11-15T16:44:22;12.20;99.90
43087;DHT22;28708;52.224;6.924;2022-11-15T16:46:49;12.20;99.90
43087;DHT22;28708;52.224;6.924;2022-11-15T16:49:20;12.20;99.90
43087;DHT22;28708;52.224;6.924;2022-11-15T16:51:47;12.10;99.90
43087;DHT22;28708;52.224;6.924;2022-11-15T16:54:13;12.10;99.90
43087;DHT22;28708;52.224;6.924;2022-11-15T16:56:40;12.20;99.90
43087;DHT22;28708;52.224;6.924;2022-11-15T16:59:06;12.20;99.90
43087;DHT22;28708;52.224;6.924;2022-11-15T17:01:37;12.20;99.90
43087;DHT22;28708;52.224;6.924;2022-11-15T17:04:11;12.20;99.90
43087;DHT22;28708;52.224;6.924;2022-11-15T17:06:38;12.20;99.90
43087;DHT22;28708;52.224;6.924;2022-11-15T17:09:05;12.30;99.90
43087;DHT22;28708;52.224;6.924;2022-11-15T17:11:31;12.40;99.90
43087;DHT22;28708;52.224;6.924;2022-11-15T17:13:57;12.40;99.90
43087;DHT22;28708;52.224;6.924;2022-11-15T17:16:23;12.30;99.90
43087;DHT22;28708;52.224;6.924;2022-11-15T17:18:50;12.40;99.90
43087;DHT22;28708;52.224;6.924;2022-11-15T17:21:17;12.30;99.90
43087;DHT22;28708;52.224;6.924;2022-11-15T17:23:43;12.30;99.90
43087;DHT22;28708;52.224;6.924;2022-11-15T17:26:11;12.20;99.90
43087;DHT22;28708;52.224;6.924;2022-11-15T17:28:37;12.20;99.90
43087;DHT22;28708;52.224;6.924;2022-11-15T17:31:08;12.20;99.90
43087;DHT22;28708;52.224;6.924;2022-11-15T17:33:34;12.20;99.90
43087;DHT22;28708;52.224;6.924;2022-11-15T17:36:02;12.20;99.90
43087;DHT22;28708;52.224;6.924;2022-11-15T17:38:29;12.20;99.90
43087;DHT22;28708;52.224;6.924;2022-11-15T17:41:06;12.20;99.90
43087;DHT22;28708;52.224;6.924;2022-11-15T17:43:35;12.20;99.90
43087;DHT22;28708;52.224;6.924;2022-11-15T17:46:04;12.20;99.90
43087;DHT22;28708;52.224;6.924;2022-11-15T17:48:31;12.20;99.90
43087;DHT22;28708;52.224;6.924;2022-11-15T17:51:01;12.20;99.90
43087;DHT22;28708;52.224;6.924;2022-11-15T17:53:30;12.20;99.90
43087;DHT22;28708;52.224;6.924;2022-11-15T17:56:01;12.30;99.90
43087;DHT22;28708;52.224;6.924;2022-11-15T17:58:26;12.30;99.90
43087;DHT22;28708;52.224;6.924;2022-11-15T18:00:52;12.20;99.90
43087;DHT22;28708;52.224;6.924;2022-11-15T18:03:18;12.20;99.90
43087;DHT22;28708;52.224;6.924;2022-11-15T18:05:43;12.20;99.90
43087;DHT22;28708;52.224;6.924;2022-11-15T18:08:10;12.20;99.90
43087;DHT22;28708;52.224;6.924;2022-11-15T18:10:37;12.20;99.90
43087;DHT22;28708;52.224;6.924;2022-11-15T18:13:03;12.20;99.90
43087;DHT22;28708;52.224;6.924;2022-11-15T18:15:28;12.20;99.90
43087;DHT22;28708;52.224;6.924;2022-11-15T18:17:54;12.20;99.90
43087;DHT22;28708;52.224;6.924;2022-11-15T18:20:20;12.20;99.90
43087;DHT22;28708;52.224;6.924;2022-11-15T18:22:45;12.10;99.90
43087;DHT22;28708;52.224;6.924;2022-11-15T18:25:11;12.10;99.90
43087;DHT22;28708;52.224;6.924;2022-11-15T18:27:40;12.00;99.90
43087;DHT22;28708;52.224;6.924;2022-11-15T18:30:07;12.20;99.90
43087;DHT22;28708;52.224;6.924;2022-11-15T18:32:32;12.20;99.90
43087;DHT22;28708;52.224;6.924;2022-11-15T18:34:58;12.30;99.90
43087;DHT22;28708;52.224;6.924;2022-11-15T18:37:24;12.30;99.90
43087;DHT22;28708;52.224;6.924;2022-11-15T18:39:49;12.40;99.90
43087;DHT22;28708;52.224;6.924;2022-11-15T18:42:15;12.40;99.90